createdAt,value
2018-01-30T00:00:34.518Z,53.70
2018-01-30T00:03:02.253Z,56.73
2018-01-30T00:05:29.922Z,53.40
2018-01-30T00:07:57.659Z,56.40
2018-01-30T00:10:25.379Z,68.80
2018-01-30T00:12:54.395Z,59.70
2018-01-30T00:15:22.930Z,133.37
2018-01-30T00:17:50.696Z,166.50
2018-01-30T00:20:18.555Z,133.60
2018-01-30T00:22:46.396Z,140.37
2018-01-30T00:25:14.264Z,156.77
2018-01-30T00:27:41.899Z,137.87
2018-01-30T00:30:09.845Z,139.83
2018-01-30T00:32:37.581Z,142.03
2018-01-30T00:35:05.234Z,142.43
2018-01-30T00:37:32.930Z,119.47
2018-01-30T00:40:00.651Z,122.57
2018-01-30T00:42:28.484Z,112.60
2018-01-30T00:44:56.116Z,111.93
2018-01-30T00:47:23.800Z,109.60
2018-01-30T00:49:51.415Z,95.10
2018-01-30T00:52:19.094Z,128.07
2018-01-30T00:54:46.863Z,99.40
2018-01-30T00:57:15.467Z,112.00
2018-01-30T00:59:43.160Z,105.03
2018-01-30T01:02:10.800Z,105.97
2018-01-30T01:04:39.430Z,102.37
2018-01-30T01:07:07.337Z,120.50
2018-01-30T01:09:35.038Z,113.23
2018-01-30T01:12:02.773Z,119.18
2018-01-30T01:14:30.485Z,127.60
2018-01-30T01:16:58.153Z,89.60
2018-01-30T01:19:26.019Z,77.83
2018-01-30T01:21:53.690Z,100.97
2018-01-30T01:24:21.320Z,94.30
2018-01-30T01:26:49.079Z,90.47
2018-01-30T01:29:16.824Z,110.20
2018-01-30T01:31:45.656Z,103.57
2018-01-30T01:34:13.367Z,90.57
2018-01-30T01:36:41.075Z,95.57
2018-01-30T01:39:08.724Z,108.85
2018-01-30T01:41:37.533Z,117.97
2018-01-30T01:44:05.268Z,116.17
2018-01-30T01:46:32.918Z,116.70
2018-01-30T01:49:00.662Z,125.93
2018-01-30T01:51:28.362Z,127.97
2018-01-30T01:53:56.914Z,131.98
2018-01-30T01:56:24.544Z,122.57
2018-01-30T01:58:52.665Z,125.55
2018-01-30T02:01:20.329Z,116.47
2018-01-30T02:03:47.965Z,147.97
2018-01-30T02:06:15.700Z,164.03
2018-01-30T02:08:43.981Z,144.13
2018-01-30T02:11:11.617Z,133.03
2018-01-30T02:13:39.264Z,60.57
2018-01-30T02:16:06.874Z,40.97
2018-01-30T02:18:35.073Z,43.33
2018-01-30T02:21:03.418Z,68.00
2018-01-30T02:23:31.043Z,70.10
2018-01-30T02:25:58.762Z,65.63
2018-01-30T02:28:26.486Z,45.63
2018-01-30T02:30:55.128Z,40.87
2018-01-30T02:33:22.819Z,53.50
2018-01-30T02:35:50.696Z,55.07
2018-01-30T02:38:18.533Z,51.47
2018-01-30T02:40:46.226Z,62.10
2018-01-30T02:43:14.017Z,52.30
2018-01-30T02:45:42.002Z,46.17
2018-01-30T02:48:11.534Z,57.87
2018-01-30T02:50:39.314Z,92.62
2018-01-30T02:53:06.985Z,98.53
2018-01-30T02:55:34.647Z,104.80
2018-01-30T02:58:02.334Z,124.80
2018-01-30T03:00:31.836Z,132.90
2018-01-30T03:02:59.568Z,151.48
2018-01-30T03:05:28.767Z,140.13
2018-01-30T03:07:57.121Z,136.57
2018-01-30T03:10:25.528Z,133.40
2018-01-30T03:12:53.788Z,133.93
2018-01-30T03:15:22.285Z,135.60
2018-01-30T03:17:49.987Z,133.27
2018-01-30T03:20:17.731Z,131.70
2018-01-30T03:22:45.480Z,116.13
2018-01-30T03:25:13.322Z,107.78
2018-01-30T03:27:41.071Z,101.20
2018-01-30T03:30:09.017Z,111.97
2018-01-30T03:32:36.688Z,107.90
2018-01-30T03:35:04.477Z,94.00
2018-01-30T03:37:32.301Z,117.97
2018-01-30T03:40:00.132Z,116.50
2018-01-30T03:42:28.616Z,94.60
2018-01-30T03:44:56.244Z,103.43
2018-01-30T03:47:24.740Z,105.30
2018-01-30T03:49:53.346Z,105.65
2018-01-30T03:52:21.006Z,92.55
2018-01-30T03:54:48.781Z,84.75
2018-01-30T03:57:16.472Z,87.18
2018-01-30T03:59:44.126Z,115.30
2018-01-30T04:02:11.843Z,81.57
2018-01-30T04:04:39.472Z,91.70
2018-01-30T04:07:07.303Z,94.18
2018-01-30T04:09:35.162Z,109.75
2018-01-30T04:12:02.916Z,113.22
2018-01-30T04:14:30.769Z,134.18
2018-01-30T04:17:00.042Z,128.43
2018-01-30T04:19:27.854Z,135.20
2018-01-30T04:21:55.762Z,120.68
2018-01-30T04:24:23.499Z,137.10
2018-01-30T04:26:51.172Z,169.23
2018-01-30T04:29:18.805Z,162.80
2018-01-30T04:31:46.584Z,149.93
2018-01-30T04:34:14.239Z,138.00
2018-01-30T04:36:42.049Z,125.18
2018-01-30T04:39:09.779Z,135.07
2018-01-30T04:41:37.498Z,111.53
2018-01-30T04:44:05.215Z,134.98
2018-01-30T04:46:32.997Z,123.75
2018-01-30T04:49:00.807Z,137.15
2018-01-30T04:51:28.544Z,122.03
2018-01-30T04:53:56.249Z,120.32
2018-01-30T04:56:24.259Z,130.52
2018-01-30T04:58:52.036Z,121.75
2018-01-30T05:01:20.473Z,127.00
2018-01-30T05:03:48.378Z,130.55
2018-01-30T05:06:16.132Z,138.82
2018-01-30T05:08:44.000Z,140.10
2018-01-30T05:11:11.798Z,139.62
2018-01-30T05:13:39.666Z,146.90
2018-01-30T05:16:07.488Z,141.30
2018-01-30T05:18:35.219Z,137.70
2018-01-30T05:21:02.995Z,136.25
2018-01-30T05:23:30.553Z,138.12
2018-01-30T05:25:58.325Z,138.52
2018-01-30T05:28:25.956Z,144.35
2018-01-30T05:30:53.672Z,147.20
2018-01-30T05:33:21.262Z,157.62
2018-01-30T05:35:48.854Z,161.57
2018-01-30T05:38:16.408Z,158.93
2018-01-30T05:40:43.966Z,160.43
2018-01-30T05:43:11.636Z,135.98
2018-01-30T05:45:39.184Z,105.37
2018-01-30T05:48:07.005Z,94.72
2018-01-30T05:50:34.560Z,78.90
2018-01-30T05:53:02.099Z,77.40
2018-01-30T05:55:29.811Z,71.32
2018-01-30T05:57:57.652Z,75.43
2018-01-30T06:00:26.492Z,89.82
2018-01-30T06:02:54.356Z,94.32
2018-01-30T06:05:21.981Z,98.80
2018-01-30T06:07:49.632Z,97.43
2018-01-30T06:10:18.066Z,78.57
2018-01-30T06:12:46.214Z,82.37
2018-01-30T06:15:14.175Z,82.78
2018-01-30T06:17:42.101Z,81.50
2018-01-30T06:20:09.862Z,92.50
2018-01-30T06:22:37.471Z,89.60
2018-01-30T06:25:05.175Z,99.45
2018-01-30T06:27:33.245Z,103.93
2018-01-30T06:30:00.897Z,94.90
2018-01-30T06:32:28.783Z,90.97
2018-01-30T06:34:56.436Z,88.10
2018-01-30T06:37:24.266Z,87.73
2018-01-30T06:39:52.127Z,80.10
2018-01-30T06:42:20.005Z,75.27
2018-01-30T06:44:47.644Z,68.87
2018-01-30T06:47:15.283Z,72.40
2018-01-30T06:49:43.058Z,84.30
2018-01-30T06:52:11.247Z,80.27
2018-01-30T06:54:39.050Z,84.23
2018-01-30T06:57:06.628Z,82.30
2018-01-30T06:59:34.560Z,82.17
2018-01-30T07:02:02.201Z,82.33
2018-01-30T07:04:29.798Z,78.17
2018-01-30T07:06:57.917Z,84.47
2018-01-30T07:09:25.561Z,87.00
2018-01-30T07:11:53.197Z,82.20
2018-01-30T07:14:20.778Z,95.10
2018-01-30T07:16:48.416Z,111.00
2018-01-30T07:19:16.194Z,113.27
2018-01-30T07:21:43.792Z,117.50
2018-01-30T07:24:11.434Z,117.97
2018-01-30T07:26:38.964Z,126.23
2018-01-30T07:29:06.493Z,129.70
2018-01-30T07:31:34.351Z,122.30
2018-01-30T07:34:01.890Z,116.73
2018-01-30T07:36:29.575Z,118.83
2018-01-30T07:38:57.165Z,122.67
2018-01-30T07:41:25.052Z,124.93
2018-01-30T07:43:52.728Z,138.90
2018-01-30T07:46:20.288Z,135.30
2018-01-30T07:48:48.101Z,137.83
2018-01-30T07:51:16.007Z,136.87
2018-01-30T07:53:43.671Z,125.33
2018-01-30T07:56:11.207Z,111.00
2018-01-30T07:58:38.752Z,98.63
2018-01-30T08:01:06.444Z,98.40
2018-01-30T08:03:34.252Z,86.30
2018-01-30T08:06:02.104Z,79.07
2018-01-30T08:08:30.746Z,77.70
2018-01-30T08:10:58.425Z,74.57
2018-01-30T08:13:26.127Z,69.10
2018-01-30T08:15:53.647Z,66.70
2018-01-30T08:18:21.506Z,59.27
2018-01-30T08:20:49.087Z,54.47
2018-01-30T08:23:16.885Z,49.90
2018-01-30T08:25:44.540Z,55.90
2018-01-30T08:28:12.363Z,49.37
2018-01-30T08:30:40.038Z,41.07
2018-01-30T08:33:08.359Z,47.70
2018-01-30T08:35:35.973Z,55.03
2018-01-30T08:38:03.546Z,58.23
2018-01-30T08:40:32.064Z,56.30
2018-01-30T08:42:59.896Z,56.57
2018-01-30T08:45:27.469Z,54.93
2018-01-30T08:47:55.361Z,57.90
2018-01-30T08:50:22.952Z,60.67
2018-01-30T08:52:50.509Z,61.40
2018-01-30T08:55:18.180Z,69.90
2018-01-30T08:57:45.778Z,60.87
2018-01-30T09:00:13.618Z,66.20
2018-01-30T09:02:41.201Z,61.93
2018-01-30T09:05:08.787Z,62.03
2018-01-30T09:07:36.573Z,61.47
2018-01-30T09:10:04.192Z,56.33
2018-01-30T09:12:31.866Z,50.07
2018-01-30T09:14:59.391Z,51.10
2018-01-30T09:17:27.178Z,50.17
2018-01-30T09:19:54.706Z,53.90
2018-01-30T09:22:22.473Z,55.20
2018-01-30T09:24:50.122Z,56.33
2018-01-30T09:27:17.685Z,54.83
2018-01-30T09:29:45.264Z,56.50
2018-01-30T09:32:12.845Z,56.70
2018-01-30T09:34:40.417Z,57.47
2018-01-30T09:37:08.125Z,57.70
2018-01-30T09:39:35.689Z,61.70
2018-01-30T09:42:04.948Z,64.00
2018-01-30T09:44:33.544Z,57.67
2018-01-30T09:47:01.088Z,57.37
2018-01-30T09:49:28.893Z,55.87
2018-01-30T09:51:56.498Z,58.03
2018-01-30T09:54:24.121Z,56.77
2018-01-30T09:56:51.872Z,53.90
2018-01-30T09:59:19.534Z,53.87
2018-01-30T10:01:47.364Z,55.87
2018-01-30T10:04:14.952Z,54.23
2018-01-30T10:06:42.686Z,56.07
2018-01-30T10:09:10.226Z,54.93
2018-01-30T10:11:37.769Z,56.00
2018-01-30T10:14:05.418Z,54.53
2018-01-30T10:16:32.952Z,54.03
2018-01-30T10:19:00.638Z,57.63
2018-01-30T10:21:28.154Z,56.80
2018-01-30T10:23:55.704Z,55.90
2018-01-30T10:26:23.231Z,53.40
2018-01-30T10:28:51.752Z,57.40
2018-01-30T10:31:19.402Z,55.20
2018-01-30T10:33:46.923Z,56.43
2018-01-30T10:36:15.590Z,53.73
2018-01-30T10:38:44.134Z,51.73
2018-01-30T10:41:11.734Z,48.80
2018-01-30T10:43:39.487Z,49.30
2018-01-30T10:46:07.304Z,49.00
2018-01-30T10:48:34.847Z,50.80
2018-01-30T10:51:02.510Z,44.97
2018-01-30T10:53:30.069Z,46.50
2018-01-30T10:55:57.789Z,50.20
2018-01-30T10:58:25.325Z,44.37
2018-01-30T11:00:53.084Z,44.20
2018-01-30T11:03:20.850Z,41.53
2018-01-30T11:05:48.510Z,42.73
2018-01-30T11:08:16.122Z,39.40
2018-01-30T11:10:43.921Z,37.23
2018-01-30T11:13:11.673Z,37.03
2018-01-30T11:15:39.345Z,40.13
2018-01-30T11:18:06.960Z,39.03
2018-01-30T11:20:34.544Z,32.83
2018-01-30T11:23:02.128Z,33.87
2018-01-30T11:25:29.661Z,34.47
2018-01-30T11:27:57.269Z,32.17
2018-01-30T11:30:24.919Z,32.00
2018-01-30T11:32:52.514Z,32.70
2018-01-30T11:35:20.366Z,27.97
2018-01-30T11:37:47.965Z,28.57
2018-01-30T11:40:15.660Z,25.60
2018-01-30T11:42:43.354Z,21.13
2018-01-30T11:45:11.308Z,18.67
2018-01-30T11:47:39.032Z,19.33
2018-01-30T11:50:06.728Z,16.33
2018-01-30T11:52:34.316Z,12.33
2018-01-30T11:55:01.983Z,10.60
2018-01-30T11:57:29.721Z,10.30
2018-01-30T11:59:57.307Z,10.37
2018-01-30T12:02:24.858Z,7.80
2018-01-30T12:04:52.511Z,8.10
2018-01-30T12:07:20.161Z,8.30
2018-01-30T12:09:47.715Z,8.03
2018-01-30T12:12:15.640Z,6.13
2018-01-30T12:14:43.488Z,6.17
2018-01-30T12:17:11.061Z,6.10
2018-01-30T12:19:38.720Z,5.80
2018-01-30T12:22:07.503Z,6.50
2018-01-30T12:24:35.246Z,5.37
2018-01-30T12:27:03.117Z,5.63
2018-01-30T12:29:31.104Z,6.53
2018-01-30T12:31:59.350Z,6.00
2018-01-30T12:34:26.942Z,6.17
2018-01-30T12:36:54.627Z,6.43
2018-01-30T12:39:23.094Z,7.40
2018-01-30T12:41:50.851Z,7.07
2018-01-30T12:44:19.236Z,7.40
2018-01-30T12:46:46.786Z,6.93
2018-01-30T12:49:15.243Z,5.37
2018-01-30T12:51:42.849Z,6.13
2018-01-30T12:54:10.463Z,6.30
2018-01-30T12:56:38.081Z,6.90
2018-01-30T12:59:06.290Z,6.93
2018-01-30T13:01:33.930Z,6.13
2018-01-30T13:04:01.485Z,6.13
2018-01-30T13:06:29.149Z,6.93
2018-01-30T13:08:56.743Z,7.47
2018-01-30T13:11:24.278Z,6.53
2018-01-30T13:13:51.827Z,6.50
2018-01-30T13:16:19.574Z,5.10
2018-01-30T13:18:47.417Z,5.90
2018-01-30T13:21:15.070Z,6.13
2018-01-30T13:23:42.732Z,6.60
2018-01-30T13:26:11.481Z,5.60
2018-01-30T13:28:39.179Z,5.87
2018-01-30T13:31:06.881Z,6.93
2018-01-30T13:33:34.840Z,6.43
2018-01-30T13:36:02.437Z,7.37
2018-01-30T13:38:30.131Z,7.10
2018-01-30T13:40:57.760Z,6.83
2018-01-30T13:43:25.428Z,6.00
2018-01-30T13:45:53.753Z,7.53
2018-01-30T13:48:21.287Z,6.73
2018-01-30T13:50:48.869Z,6.80
2018-01-30T13:53:16.592Z,6.47
2018-01-30T13:55:44.312Z,7.07
2018-01-30T13:58:12.058Z,5.77
2018-01-30T14:00:39.838Z,6.70
2018-01-30T14:03:07.696Z,6.37
2018-01-30T14:05:35.281Z,6.47
2018-01-30T14:08:02.937Z,7.57
2018-01-30T14:10:30.702Z,7.50
2018-01-30T14:12:58.417Z,6.50
2018-01-30T14:15:25.965Z,6.70
2018-01-30T14:17:53.688Z,6.83
2018-01-30T14:20:21.298Z,7.10
2018-01-30T14:22:48.894Z,8.43
2018-01-30T14:25:16.592Z,7.67
2018-01-30T14:27:44.117Z,7.23
2018-01-30T14:30:11.823Z,6.20
2018-01-30T14:32:39.445Z,5.60
2018-01-30T14:35:07.012Z,7.30
2018-01-30T14:37:34.597Z,6.50
2018-01-30T14:40:02.272Z,6.50
2018-01-30T14:42:29.937Z,6.50
2018-01-30T14:44:57.454Z,7.10
2018-01-30T14:47:25.060Z,7.53
2018-01-30T14:49:53.093Z,7.00
2018-01-30T14:52:20.609Z,7.60
2018-01-30T14:54:48.277Z,7.37
2018-01-30T14:57:15.828Z,7.67
2018-01-30T14:59:43.357Z,7.60
2018-01-30T15:02:11.106Z,7.27
2018-01-30T15:04:38.637Z,7.70
2018-01-30T15:07:06.345Z,8.70
2018-01-30T15:09:33.883Z,23.70
2018-01-30T15:12:01.463Z,11.20
2018-01-30T15:14:29.233Z,8.23
2018-01-30T15:16:56.805Z,11.03
2018-01-30T15:19:24.471Z,10.67
2018-01-30T15:21:52.257Z,8.30
2018-01-30T15:24:19.769Z,8.07
2018-01-30T15:26:47.635Z,6.63
2018-01-30T15:29:15.276Z,8.37
2018-01-30T15:31:42.905Z,7.73
2018-01-30T15:34:10.511Z,6.97
2018-01-30T15:36:38.199Z,8.73
2018-01-30T15:39:05.760Z,8.80
2018-01-30T15:41:33.287Z,10.83
2018-01-30T15:44:00.821Z,8.77
2018-01-30T15:46:28.345Z,10.10
2018-01-30T15:48:56.268Z,10.50
2018-01-30T15:51:23.812Z,9.83
2018-01-30T15:53:51.374Z,9.57
2018-01-30T15:56:18.908Z,11.90
2018-01-30T15:58:46.519Z,10.53
2018-01-30T16:01:14.244Z,10.10
2018-01-30T16:03:41.889Z,10.17
2018-01-30T16:06:09.561Z,9.87
2018-01-30T16:08:37.301Z,14.53
2018-01-30T16:11:04.845Z,18.23
2018-01-30T16:13:32.540Z,13.20
2018-01-30T16:16:00.080Z,10.80
2018-01-30T16:18:28.558Z,9.53
2018-01-30T16:20:56.201Z,9.97
2018-01-30T16:23:24.189Z,10.73
2018-01-30T16:25:51.871Z,10.67
2018-01-30T16:28:19.455Z,11.40
2018-01-30T16:30:48.039Z,10.63
2018-01-30T16:33:15.620Z,10.67
2018-01-30T16:35:43.873Z,11.33
2018-01-30T16:38:11.457Z,12.20
2018-01-30T16:40:38.997Z,9.33
2018-01-30T16:43:06.756Z,10.93
2018-01-30T16:45:34.314Z,12.97
2018-01-30T16:48:01.877Z,11.57
2018-01-30T16:50:29.405Z,12.40
2018-01-30T16:52:56.955Z,13.47
2018-01-30T16:55:25.588Z,12.83
2018-01-30T16:57:53.372Z,13.00
2018-01-30T17:00:21.127Z,16.90
2018-01-30T17:02:48.645Z,12.67
2018-01-30T17:05:16.509Z,14.90
2018-01-30T17:07:44.036Z,12.40
2018-01-30T17:10:11.575Z,11.90
2018-01-30T17:12:39.241Z,12.20
2018-01-30T17:15:06.819Z,12.43
2018-01-30T17:17:34.543Z,12.60
2018-01-30T17:20:03.085Z,13.27
2018-01-30T17:22:30.845Z,11.93
2018-01-30T17:24:58.592Z,12.70
2018-01-30T17:27:26.159Z,11.97
2018-01-30T17:29:53.998Z,13.03
2018-01-30T17:32:21.601Z,14.00
2018-01-30T17:34:49.481Z,14.20
2018-01-30T17:37:17.208Z,14.10
2018-01-30T17:39:45.074Z,13.03
2018-01-30T17:42:12.699Z,12.80
2018-01-30T17:44:40.346Z,11.87
2018-01-30T17:47:07.952Z,14.50
2018-01-30T17:49:35.603Z,13.27
2018-01-30T17:52:03.202Z,13.40
2018-01-30T17:54:30.762Z,13.27
2018-01-30T17:56:58.297Z,14.10
2018-01-30T17:59:25.844Z,15.27
2018-01-30T18:01:53.417Z,19.87
2018-01-30T18:04:20.952Z,13.83
2018-01-30T18:06:48.620Z,13.90
2018-01-30T18:09:16.224Z,17.83
2018-01-30T18:11:44.003Z,14.40
2018-01-30T18:14:11.642Z,15.47
2018-01-30T18:16:39.162Z,14.93
2018-01-30T18:19:06.837Z,14.13
2018-01-30T18:21:34.525Z,14.27
2018-01-30T18:24:02.198Z,14.37
2018-01-30T18:26:30.172Z,12.90
2018-01-30T18:28:57.997Z,14.03
2018-01-30T18:31:27.149Z,12.70
2018-01-30T18:33:55.224Z,13.70
2018-01-30T18:36:22.839Z,16.75
2018-01-30T18:38:51.002Z,13.70
2018-01-30T18:41:18.547Z,11.83
2018-01-30T18:43:46.803Z,12.20
2018-01-30T18:46:14.364Z,13.17
2018-01-30T18:48:42.410Z,12.97
2018-01-30T18:51:10.181Z,12.50
2018-01-30T18:53:37.802Z,11.50
2018-01-30T18:56:05.662Z,11.10
2018-01-30T18:58:35.196Z,10.17
2018-01-30T19:01:03.150Z,11.00
2018-01-30T19:03:30.752Z,10.70
2018-01-30T19:05:58.831Z,10.83
2018-01-30T19:08:26.509Z,11.10
2018-01-30T19:10:54.066Z,11.70
2018-01-30T19:13:22.651Z,12.43
2018-01-30T19:15:51.748Z,11.13
2018-01-30T19:18:21.381Z,12.93
2018-01-30T19:20:49.552Z,12.57
2018-01-30T19:23:23.077Z,13.87
2018-01-30T19:25:56.004Z,13.67
2018-01-30T19:28:26.396Z,14.43
2018-01-30T19:30:55.236Z,15.33
2018-01-30T19:33:25.555Z,15.10
2018-01-30T19:35:53.580Z,15.20
2018-01-30T19:38:21.535Z,13.73
2018-01-30T19:40:50.782Z,12.23
2018-01-30T19:45:53.469Z,13.63
2018-01-30T19:48:21.298Z,14.57
2018-01-30T19:50:49.283Z,14.67
2018-01-30T19:53:17.926Z,16.47
2018-01-30T19:55:45.539Z,15.07
2018-01-30T19:58:13.094Z,15.00
2018-01-30T20:00:40.805Z,14.37
2018-01-30T20:03:08.441Z,14.57
2018-01-30T20:05:36.127Z,13.55
2018-01-30T20:08:04.076Z,15.65
2018-01-30T20:10:31.705Z,14.70
2018-01-30T20:13:00.603Z,14.10
2018-01-30T20:15:28.282Z,12.73
2018-01-30T20:17:56.014Z,11.97
2018-01-30T20:20:23.705Z,13.60
2018-01-30T20:22:51.397Z,13.00
2018-01-30T20:25:19.145Z,13.57
2018-01-30T20:27:47.281Z,14.80
2018-01-30T20:30:16.095Z,15.40
2018-01-30T20:32:44.202Z,14.73
2018-01-30T20:35:12.326Z,14.40
2018-01-30T20:37:40.332Z,17.75
2018-01-30T20:40:08.893Z,19.10
2018-01-30T20:42:36.481Z,13.70
2018-01-30T20:45:04.207Z,14.73
2018-01-30T20:47:32.285Z,13.07
2018-01-30T20:49:59.960Z,13.37
2018-01-30T20:52:27.658Z,12.00
2018-01-30T20:54:55.847Z,11.73
2018-01-30T20:57:23.491Z,12.90
2018-01-30T20:59:54.759Z,11.67
2018-01-30T21:02:22.515Z,12.50
2018-01-30T21:04:50.292Z,12.37
2018-01-30T21:07:18.084Z,11.63
2018-01-30T21:09:47.113Z,11.03
2018-01-30T21:12:15.025Z,11.23
2018-01-30T21:14:42.685Z,11.10
2018-01-30T21:17:10.362Z,10.10
2018-01-30T21:19:38.907Z,9.00
2018-01-30T21:22:06.563Z,9.88
2018-01-30T21:24:35.119Z,8.53
2018-01-30T21:27:02.778Z,7.67
2018-01-30T21:29:30.574Z,7.33
2018-01-30T21:31:58.212Z,6.00
2018-01-30T21:34:27.497Z,6.20
2018-01-30T21:36:55.226Z,6.63
2018-01-30T21:39:22.791Z,6.60
2018-01-30T21:41:50.909Z,7.40
2018-01-30T21:44:19.545Z,6.20
2018-01-30T21:46:47.201Z,6.23
2018-01-30T21:49:14.877Z,6.73
2018-01-30T21:51:42.472Z,6.90
2018-01-30T21:54:10.080Z,7.70
2018-01-30T21:56:37.690Z,8.30
2018-01-30T21:59:05.791Z,11.90
2018-01-30T22:01:33.791Z,13.80
2018-01-30T22:04:01.401Z,13.70
2018-01-30T22:06:29.321Z,12.00
2018-01-30T22:08:57.033Z,13.67
2018-01-30T22:11:24.766Z,12.40
2018-01-30T22:13:52.417Z,14.90
2018-01-30T22:16:20.141Z,11.20
2018-01-30T22:18:47.917Z,10.63
2018-01-30T22:21:15.610Z,10.33
2018-01-30T22:23:43.274Z,9.00
2018-01-30T22:26:10.877Z,8.17
2018-01-30T22:28:38.537Z,7.97
2018-01-30T22:31:06.366Z,8.67
2018-01-30T22:33:34.144Z,8.20
2018-01-30T22:36:01.931Z,8.20
2018-01-30T22:38:29.592Z,8.13
2018-01-30T22:40:57.209Z,8.57
2018-01-30T22:43:24.970Z,8.17
2018-01-30T22:45:52.596Z,7.60
